Chaflin Bridge, Illinois
Current Conditions -  °F | °C
As of 3:55 PM on Monday 20 Oct 2014 (Local Time) from KSAR Reporting Station
Clear Clear  
Wind Chill: 74°   Ceiling: Unl
Heat Index: 74°   Visibility: 10mi
Dew Point: 49°   Wind: 10mph
Humidity: 41%   Direction: 310°NW
Pressure: 29.93"   Gusts: 18mph
Location:  38.164°N, 90.1984°W
Report Text: KSAR 202055Z AUTO 31009G16KT 10SM CLR 23/09 A2993 RMK AO2 T02310092
Loading
Personal Weather Stations






























Interactive Weather Map
Tropical Storm Tracking
New forecast layout! Learn more

10-Day Weather Forecast

Advertisements
Track Severe Weather on mobile